Time;durP1;ratioP1;P1;durP2;ratioP2;P2;SDS_P1;SDS_P2;PMS_P1;PMS_P2;Temp;Humidity;BMP_temperature;BMP_pressure;BME280_temperature;BME280_humidity;BME280_pressure;Samples;Min_cycle;Max_cycle;Signal;HPM_P1;HPM_P2
2022/05/16 00:01:10;;;;;;;0.85;0.50;;;;;;;22.45;51.85;100690.94;4934419;29;20131;-83
2022/05/16 00:03:39;;;;;;;1.08;0.35;;;;;;;22.45;52.38;100690.94;4934102;29;20055;-83
2022/05/16 00:06:07;;;;;;;1.52;0.47;;;;;;;22.38;51.96;100688.44;4934225;29;20056;-85
2022/05/16 00:08:36;;;;;;;0.50;0.30;;;;;;;22.31;51.56;100686.84;4933945;29;20533;-81
2022/05/16 00:11:04;;;;;;;1.02;0.43;;;;;;;22.38;51.70;100691.09;4934006;29;20070;-84
2022/05/16 00:13:33;;;;;;;1.20;0.73;;;;;;;22.40;49.60;100695.44;4937779;29;20106;-80
2022/05/16 00:16:02;;;;;;;1.40;0.50;;;;;;;22.47;50.88;100702.34;4952670;29;20047;-85
2022/05/16 00:18:32;;;;;;;2.55;0.45;;;;;;;22.50;49.19;100697.88;4952460;29;20047;-85
2022/05/16 00:21:00;;;;;;;1.02;0.40;;;;;;;22.31;47.69;100707.94;4952768;29;20057;-85
2022/05/16 00:23:29;;;;;;;1.58;0.77;;;;;;;22.34;49.18;100718.41;4952588;29;20108;-83
2022/05/16 00:25:57;;;;;;;2.90;1.00;;;;;;;22.33;47.49;100705.25;4953814;29;20047;-83
2022/05/16 00:28:26;;;;;;;2.70;0.80;;;;;;;22.35;47.36;100708.72;4952750;29;20084;-85
2022/05/16 00:30:54;;;;;;;2.00;0.80;;;;;;;22.38;46.79;100725.38;4938499;29;20111;-86
2022/05/16 00:33:23;;;;;;;1.00;0.50;;;;;;;22.41;46.97;100728.84;4934816;29;20103;-81
2022/05/16 00:35:53;;;;;;;3.42;1.23;;;;;;;22.38;45.50;100719.22;4952346;29;20082;-85
2022/05/16 00:38:21;;;;;;;1.35;0.77;;;;;;;22.48;45.83;100725.19;4951228;29;20067;-85
2022/05/16 00:40:50;;;;;;;4.13;0.90;;;;;;;22.44;43.01;100739.31;4936438;28;20127;-84
2022/05/16 00:43:42;;;;;;;2.88;0.75;;;;;;;22.44;43.91;100720.84;4934955;29;20110;-84
2022/05/16 00:46:11;;;;;;;2.60;0.80;;;;;;;22.31;43.08;100726.38;4934793;29;20055;-83
2022/05/16 00:48:39;;;;;;;1.75;0.75;;;;;;;22.21;43.34;100727.44;4933414;29;20052;-85
2022/05/16 00:51:14;;;;;;;2.30;0.90;;;;;;;22.02;42.99;100731.31;4933747;29;20542;-85
2022/05/16 00:53:44;;;;;;;3.72;1.77;;;;;;;21.82;44.45;100737.78;4933519;29;20056;-88
2022/05/16 00:56:12;;;;;;;2.75;1.20;;;;;;;21.62;42.67;100726.72;4933621;29;20062;-86
2022/05/16 00:58:43;;;;;;;1.80;1.08;;;;;;;21.46;42.90;100737.50;4933781;29;20136;-86
2022/05/16 01:06:43;;;;;;;2.13;1.02;;;;;;;20.90;43.06;100731.25;4935861;29;20095;-85
2022/05/16 01:09:12;;;;;;;1.90;1.08;;;;;;;20.75;43.68;100737.56;4933336;29;20055;-87
2022/05/16 01:11:41;;;;;;;2.55;1.00;;;;;;;20.65;44.77;100730.72;4933726;29;20099;-86
2022/05/16 01:14:10;;;;;;;3.20;0.93;;;;;;;20.51;44.31;100726.44;4944306;29;20140;-87
2022/05/16 01:16:39;;;;;;;3.47;0.95;;;;;;;20.47;45.42;100734.41;4956382;29;20485;-88
2022/05/16 01:19:07;;;;;;;3.63;1.08;;;;;;;20.40;46.29;100740.63;4956663;29;20051;-88
2022/05/16 01:21:39;;;;;;;3.90;0.98;;;;;;;20.30;45.41;100748.59;4955371;28;20134;-86
2022/05/16 01:24:12;;;;;;;2.75;0.95;;;;;;;20.20;47.10;100739.09;4954490;29;20051;-86
2022/05/16 01:26:41;;;;;;;1.58;0.82;;;;;;;20.18;47.55;100751.38;4956125;29;20055;-89
2022/05/16 01:29:10;;;;;;;3.72;1.10;;;;;;;20.11;48.41;100743.53;4938614;29;20439;-89
2022/05/16 01:31:38;;;;;;;1.92;0.90;;;;;;;20.01;47.84;100753.28;4938714;29;20052;-86
2022/05/16 01:34:07;;;;;;;2.15;1.30;;;;;;;19.97;48.77;100749.78;4939171;29;20044;-88
2022/05/16 01:36:36;;;;;;;2.90;0.98;;;;;;;19.92;50.18;100753.34;4939218;29;20115;-85
2022/05/16 01:39:05;;;;;;;2.13;1.00;;;;;;;19.87;51.04;100746.38;4936854;29;20489;-91
2022/05/16 01:41:36;;;;;;;4.90;1.17;;;;;;;19.77;50.66;100736.88;4920445;29;20060;-90
2022/05/16 01:44:04;;;;;;;3.08;1.00;;;;;;;19.69;50.27;100741.28;4934031;29;20116;-87
2022/05/16 01:46:36;;;;;;;2.47;1.17;;;;;;;19.61;50.79;100748.34;4933083;29;20050;-82
2022/05/16 01:49:05;;;;;;;3.50;1.30;;;;;;;19.57;51.27;100738.75;4932387;29;20553;-81
2022/05/16 01:51:34;;;;;;;1.75;0.70;;;;;;;19.48;51.28;100733.56;4932393;29;20329;-83
2022/05/16 01:54:03;;;;;;;2.72;1.02;;;;;;;19.39;52.09;100737.13;4932752;29;20064;-84
2022/05/16 01:56:32;;;;;;;3.17;1.00;;;;;;;19.35;52.69;100745.88;4932305;29;20058;-82
2022/05/16 01:59:04;;;;;;;2.72;0.93;;;;;;;19.30;52.16;100747.69;4932564;29;20055;-81
2022/05/16 02:01:33;;;;;;;2.13;0.95;;;;;;;19.25;52.93;100747.72;4932144;29;20139;-83
2022/05/16 02:04:02;;;;;;;3.42;1.05;;;;;;;19.19;53.04;100753.00;4932025;29;20047;-83
2022/05/16 02:06:31;;;;;;;1.80;1.00;;;;;;;19.15;53.81;100761.75;4932686;29;20079;-86
2022/05/16 02:08:59;;;;;;;2.17;1.10;;;;;;;19.10;53.84;100761.78;4932288;29;20111;-82
2022/05/16 02:11:28;;;;;;;3.40;1.10;;;;;;;19.08;54.29;100754.78;4933139;29;20178;-84
2022/05/16 02:13:56;;;;;;;4.53;0.95;;;;;;;19.03;54.83;100771.44;4940756;29;20050;-82
2022/05/16 02:16:26;;;;;;;4.20;1.13;;;;;;;18.94;54.96;100760.97;4951576;29;20086;-83
2022/05/16 02:18:55;;;;;;;2.40;0.85;;;;;;;18.97;55.33;100770.59;4951094;29;20092;-82
2022/05/16 02:26:54;;;;;;;2.70;1.00;;;;;;;18.83;56.22;100789.03;4950682;29;20062;-82
2022/05/16 02:29:22;;;;;;;3.42;0.93;;;;;;;18.78;56.09;100790.75;4950565;29;20050;-82
2022/05/16 02:31:52;;;;;;;2.58;0.90;;;;;;;18.72;57.07;100785.53;4933654;29;20083;-82
2022/05/16 02:34:21;;;;;;;3.25;1.35;;;;;;;18.70;57.26;100782.03;4940554;29;20085;-83
2022/05/16 02:36:50;;;;;;;3.92;1.05;;;;;;;18.66;57.49;100786.41;4950586;29;20568;-82
2022/05/16 02:39:19;;;;;;;2.95;0.80;;;;;;;18.63;58.11;100792.53;4942301;29;20733;-82
2022/05/16 02:41:48;;;;;;;2.53;0.70;;;;;;;18.58;57.68;100803.91;4932436;28;20099;-86
2022/05/16 02:44:16;;;;;;;2.30;0.55;;;;;;;18.52;58.86;100798.69;4931740;29;20082;-83
2022/05/16 02:46:45;;;;;;;3.75;0.77;;;;;;;18.46;59.34;100791.69;4931956;29;20059;-82
2022/05/16 02:49:15;;;;;;;0.95;0.63;;;;;;;18.42;59.19;100795.22;4932176;29;20312;-82
2022/05/16 02:51:44;;;;;;;2.78;0.70;;;;;;;18.43;59.88;100804.81;4931711;29;20048;-80
2022/05/16 02:54:13;;;;;;;1.45;0.50;;;;;;;18.37;60.54;100804.81;4929930;29;20051;-83
2022/05/16 02:56:42;;;;;;;2.50;0.43;;;;;;;18.32;60.03;100807.44;4931282;29;20060;-83
2022/05/16 02:59:10;;;;;;;1.30;0.52;;;;;;;18.25;60.92;100807.47;4932477;29;20486;-83
2022/05/16 03:01:39;;;;;;;0.93;0.50;;;;;;;18.20;60.46;100807.47;4931058;29;20093;-83
2022/05/16 03:04:07;;;;;;;1.17;0.47;;;;;;;18.13;61.31;100806.59;4931171;29;20051;-81
2022/05/16 03:06:37;;;;;;;0.68;0.30;;;;;;;18.04;62.26;100804.00;4930516;29;20477;-83
2022/05/16 03:09:06;;;;;;;2.03;0.40;;;;;;;18.00;62.46;100802.22;4930774;29;20111;-82
2022/05/16 03:11:34;;;;;;;0.63;0.40;;;;;;;17.97;62.91;100805.72;4931400;29;20047;-82
2022/05/16 03:14:03;;;;;;;2.85;0.50;;;;;;;17.92;62.68;100807.47;4940077;29;20137;-85
2022/05/16 03:16:31;;;;;;;3.60;0.38;;;;;;;17.92;63.00;100811.84;4949700;29;20047;-87
2022/05/16 03:19:00;;;;;;;0.30;0.30;;;;;;;17.91;63.92;100817.94;4950675;29;20054;-87
2022/05/16 03:21:29;;;;;;;0.38;0.17;;;;;;;17.90;63.64;100824.06;4950460;29;20107;-86
2022/05/16 03:24:00;;;;;;;2.92;0.40;;;;;;;17.87;63.29;100829.31;4953250;29;20055;-88
2022/05/16 03:26:28;;;;;;;0.90;0.25;;;;;;;17.82;63.94;100831.94;4951874;29;20103;-83
2022/05/16 03:28:57;;;;;;;2.15;0.30;;;;;;;17.80;63.92;100837.13;4949881;29;20047;-82
2022/05/16 03:31:25;;;;;;;0.50;0.20;;;;;;;17.77;64.16;100837.13;4931812;29;20051;-84
2022/05/16 03:33:54;;;;;;;1.40;0.63;;;;;;;17.74;64.46;100837.09;4936906;29;20571;-80
2022/05/16 03:36:22;;;;;;;1.38;0.43;;;;;;;17.72;65.11;100844.06;4949880;29;20059;-81
2022/05/16 03:41:38;;;;;;;0.20;0.20;;;;;;;17.67;65.10;100848.44;4931872;28;20473;-80
2022/05/16 03:44:06;;;;;;;0.90;0.32;;;;;;;17.65;65.31;100850.16;4930591;29;20268;-81
2022/05/16 03:46:35;;;;;;;0.40;0.30;;;;;;;17.59;66.05;100851.03;4932924;29;20043;-80
2022/05/16 03:49:04;;;;;;;0.30;0.30;;;;;;;17.58;66.30;100859.75;4934709;29;20075;-79
2022/05/16 03:51:33;;;;;;;0.73;0.35;;;;;;;17.56;65.97;100863.22;4934608;29;20086;-80
2022/05/16 03:54:01;;;;;;;0.45;0.30;;;;;;;17.52;66.84;100854.50;4934647;29;20115;-79
2022/05/16 03:56:30;;;;;;;2.40;0.50;;;;;;;17.50;66.91;100861.50;4934269;29;20533;-80
2022/05/16 03:59:01;;;;;;;0.50;0.30;;;;;;;17.46;67.54;100869.31;4934331;29;20047;-79
2022/05/16 04:01:30;;;;;;;0.75;0.20;;;;;;;17.41;67.74;100873.63;4934197;29;20061;-80
2022/05/16 04:03:58;;;;;;;0.45;0.25;;;;;;;17.37;68.02;100868.41;4933949;29;20051;-80
2022/05/16 04:06:27;;;;;;;0.68;0.40;;;;;;;17.31;68.23;100876.22;4934189;29;20497;-80
2022/05/16 04:08:55;;;;;;;1.85;0.43;;;;;;;17.24;68.76;100887.53;4933719;29;20058;-80
2022/05/16 04:11:24;;;;;;;1.30;0.38;;;;;;;17.21;68.81;100884.91;4934301;29;20052;-80
2022/05/16 04:13:52;;;;;;;1.20;0.30;;;;;;;17.19;68.48;100891.88;4940423;29;20496;-79
2022/05/16 04:16:23;;;;;;;0.65;0.45;;;;;;;17.15;68.55;100896.19;4953798;29;20047;-78
2022/05/16 04:18:52;;;;;;;0.55;0.30;;;;;;;17.14;68.22;100898.84;4955726;29;20078;-81
2022/05/16 04:21:20;;;;;;;0.47;0.20;;;;;;;17.08;68.98;100899.66;4953533;29;20098;-81
2022/05/16 04:23:49;;;;;;;0.65;0.30;;;;;;;17.05;69.21;100906.63;4952501;29;20497;-81
2022/05/16 04:26:17;;;;;;;1.55;0.40;;;;;;;17.01;68.71;100905.72;4952799;29;20070;-80
2022/05/16 04:28:46;;;;;;;0.15;0.10;;;;;;;16.99;69.47;100901.34;4952615;29;20118;-82
2022/05/16 04:31:15;;;;;;;0.38;0.20;;;;;;;16.94;69.70;100902.19;4936136;29;20062;-78
2022/05/16 04:33:45;;;;;;;0.80;0.20;;;;;;;16.95;69.69;100909.19;4937227;29;20043;-81
2022/05/16 04:36:15;;;;;;;0.20;0.10;;;;;;;16.92;69.45;100903.06;4952108;29;20047;-79
2022/05/16 04:38:43;;;;;;;0.15;0.10;;;;;;;16.90;70.05;100910.00;4948602;29;20118;-79
2022/05/16 04:43:57;;;;;;;0.30;0.25;;;;;;;16.86;70.34;100919.59;4933103;29;20094;-77
2022/05/16 04:46:25;;;;;;;0.50;0.30;;;;;;;16.86;70.92;100914.38;4932883;29;20118;-78
2022/05/16 04:48:56;;;;;;;3.00;0.40;;;;;;;16.86;70.88;100919.59;4933265;29;20309;-78
2022/05/16 04:51:24;;;;;;;0.25;0.20;;;;;;;16.86;70.82;100922.22;4933472;29;20134;-78
2022/05/16 04:53:52;;;;;;;0.80;0.22;;;;;;;16.86;70.87;100930.03;4932497;29;20557;-77
2022/05/16 04:56:21;;;;;;;0.10;0.10;;;;;;;16.86;71.03;100940.50;4933596;29;20147;-77
2022/05/16 04:58:49;;;;;;;0.38;0.22;;;;;;;16.87;71.28;100942.22;4932197;29;20047;-78
2022/05/16 05:01:18;;;;;;;0.40;0.30;;;;;;;16.75;71.32;100931.69;4933486;29;20047;-80
2022/05/16 05:03:46;;;;;;;0.52;0.20;;;;;;;16.83;71.47;100943.06;4932475;29;20063;-77
2022/05/16 05:06:17;;;;;;;0.35;0.28;;;;;;;16.85;71.54;100964.00;4932895;29;20047;-78
2022/05/16 05:08:46;;;;;;;0.40;0.10;;;;;;;16.83;71.73;100961.38;4932947;29;20138;-81
2022/05/16 05:16:44;;;;;;;0.75;0.25;;;;;;;16.75;70.73;100971.75;4952351;29;20074;-81
2022/05/16 05:19:13;;;;;;;1.00;0.30;;;;;;;16.73;70.84;100975.22;4951926;29;20058;-81
2022/05/16 05:21:51;;;;;;;1.17;0.20;;;;;;;16.70;71.57;100980.41;4951031;29;20113;-81
2022/05/16 05:24:20;;;;;;;0.32;0.28;;;;;;;16.67;71.38;100980.38;4951825;29;20055;-81
2022/05/16 05:26:48;;;;;;;0.32;0.10;;;;;;;16.63;72.23;100981.19;4951315;29;20051;-79
2022/05/16 05:29:18;;;;;;;1.05;0.20;;;;;;;16.58;72.12;100991.63;4949815;29;20051;-80
2022/05/16 05:31:47;;;;;;;0.38;0.20;;;;;;;16.57;71.88;100996.84;4932320;29;20058;-80
2022/05/16 05:34:16;;;;;;;0.65;0.38;;;;;;;16.55;71.82;101002.06;4941034;29;20087;-80
2022/05/16 05:36:44;;;;;;;0.20;0.20;;;;;;;16.45;72.37;100988.03;4950956;29;20051;-82
2022/05/16 05:39:16;;;;;;;2.55;0.30;;;;;;;16.47;72.69;101009.81;4943808;29;20506;-80
2022/05/16 05:41:58;;;;;;;1.80;0.20;;;;;;;16.46;73.57;101017.63;4932930;28;20052;-80
2022/05/16 05:44:26;;;;;;;0.20;0.20;;;;;;;16.44;73.47;101022.84;4932133;29;20111;-80
2022/05/16 05:46:55;;;;;;;0.52;0.20;;;;;;;16.45;73.18;101019.38;4932396;29;20166;-80
2022/05/16 05:49:23;;;;;;;0.25;0.10;;;;;;;16.41;73.73;101025.44;4932452;29;20059;-81
2022/05/16 05:51:51;;;;;;;0.30;0.20;;;;;;;16.36;73.65;101021.91;4931971;29;20051;-80
2022/05/16 05:54:22;;;;;;;0.63;0.40;;;;;;;16.34;73.74;101027.09;4932104;29;20056;-80
2022/05/16 05:56:50;;;;;;;0.13;0.13;;;;;;;16.33;74.80;101027.97;4931703;29;20047;-82
2022/05/16 05:59:18;;;;;;;0.05;0.05;;;;;;;16.30;75.06;101033.16;4931919;29;20095;-82
2022/05/16 06:01:47;;;;;;;0.22;0.20;;;;;;;16.29;74.73;101025.31;4931933;29;20078;-81
2022/05/16 06:04:15;;;;;;;0.93;0.20;;;;;;;16.27;75.08;101033.13;4932267;29;20056;-82
2022/05/16 06:06:46;;;;;;;0.10;0.10;;;;;;;16.24;74.99;101030.50;4936283;29;20092;-81
2022/05/16 06:09:15;;;;;;;0.30;0.10;;;;;;;16.16;74.83;101028.66;4932204;29;20066;-81
2022/05/16 06:11:45;;;;;;;1.42;0.20;;;;;;;16.07;74.74;101027.69;4932212;29;20150;-80
2022/05/16 06:14:13;;;;;;;0.40;0.10;;;;;;;16.08;74.45;101026.84;4941323;29;20078;-80
2022/05/16 06:16:42;;;;;;;0.75;0.20;;;;;;;16.03;74.05;101032.84;4951010;29;20586;-85
2022/05/16 06:19:10;;;;;;;0.32;0.13;;;;;;;15.98;74.99;101039.75;4951061;29;20059;-83
2022/05/16 06:21:39;;;;;;;0.10;0.10;;;;;;;15.94;74.45;101033.59;4950588;29;20706;-84
2022/05/16 06:25:31;;;;;;;0.35;0.20;;;;;;;15.90;73.88;101043.16;4950720;29;20134;-79
2022/05/16 06:26:59;;;;;;;0.30;0.10;;;;;;;15.84;73.96;101043.06;4950807;29;20082;-82
2022/05/16 06:29:28;;;;;;;0.95;0.20;;;;;;;15.82;74.11;101047.38;4948136;29;20578;-83
2022/05/16 06:31:57;;;;;;;2.22;0.20;;;;;;;15.81;73.56;101042.16;4931478;29;20051;-82
2022/05/16 06:34:25;;;;;;;0.20;0.08;;;;;;;15.81;73.61;101045.66;4941103;29;20149;-81
2022/05/16 06:36:54;;;;;;;0.08;0.05;;;;;;;15.80;73.43;101043.00;4950362;29;20055;-81
2022/05/16 06:39:22;;;;;;;2.03;0.60;;;;;;;15.80;73.50;101043.88;4941784;29;20059;-81
2022/05/16 06:41:51;;;;;;;0.30;0.03;;;;;;;15.78;73.97;101048.22;4932147;28;20138;-81
2022/05/16 06:44:21;;;;;;;0.30;0.10;;;;;;;15.80;73.73;101049.09;4931235;29;20134;-81
2022/05/16 06:46:49;;;;;;;0.30;0.20;;;;;;;15.78;73.42;101044.72;4930696;29;20083;-83
2022/05/16 06:49:18;;;;;;;1.38;0.10;;;;;;;15.75;73.98;101053.38;4931884;29;20043;-83
2022/05/16 06:51:46;;;;;;;0.30;0.10;;;;;;;15.68;74.02;101055.00;4931241;29;20103;-82
2022/05/16 06:54:14;;;;;;;0.17;0.10;;;;;;;15.66;74.00;101055.84;4931456;29;20056;-83
2022/05/16 06:56:43;;;;;;;0.20;0.10;;;;;;;15.64;74.29;101063.63;4931484;29;20142;-83
2022/05/16 06:59:11;;;;;;;0.75;0.20;;;;;;;15.62;74.76;101060.16;4932062;29;20107;-83
2022/05/16 07:01:41;;;;;;;0.90;0.10;;;;;;;15.59;74.40;101054.00;4934506;29;20084;-82
2022/05/16 07:04:10;;;;;;;0.60;0.20;;;;;;;15.56;75.32;101065.28;4931308;29;20056;-81
2022/05/16 07:06:38;;;;;;;1.40;0.10;;;;;;;15.56;74.94;101067.88;4931550;29;20126;-84
2022/05/16 07:09:07;;;;;;;0.98;0.10;;;;;;;15.55;75.49;101066.13;4931482;29;20142;-81
2022/05/16 07:11:35;;;;;;;1.13;0.10;;;;;;;15.55;75.79;101075.69;4931407;29;20075;-82
2022/05/16 07:14:03;;;;;;;0.20;0.20;;;;;;;15.53;75.61;101070.47;4939313;29;20051;-84
2022/05/16 07:16:32;;;;;;;0.75;0.30;;;;;;;15.48;75.02;101059.06;4949889;29;20110;-84
2022/05/16 07:19:02;;;;;;;0.17;0.15;;;;;;;15.47;76.10;101070.38;4949960;29;20047;-83
2022/05/16 07:21:31;;;;;;;0.10;0.10;;;;;;;15.45;74.88;101079.88;4952552;28;20052;-82
2022/05/16 07:23:59;;;;;;;1.60;0.20;;;;;;;15.40;75.12;101076.34;4953722;29;20134;-80
2022/05/16 07:29:12;;;;;;;0.75;0.30;;;;;;;15.37;74.21;101082.41;4953361;29;20054;-84
2022/05/16 07:31:41;;;;;;;0.05;0.05;;;;;;;15.27;74.75;101086.56;4935127;29;20052;-81
2022/05/16 07:34:11;;;;;;;0.85;0.20;;;;;;;15.28;74.94;101090.94;4941630;29;20049;-82
2022/05/16 07:36:39;;;;;;;1.55;0.32;;;;;;;15.26;75.25;101095.25;4953574;29;20054;-83
2022/05/16 07:39:08;;;;;;;1.35;0.20;;;;;;;15.25;74.38;101103.91;4946101;29;20103;-80
2022/05/16 07:41:38;;;;;;;5.63;0.30;;;;;;;15.22;75.10;101103.00;4934976;28;20047;-80
2022/05/16 07:44:06;;;;;;;0.28;0.10;;;;;;;15.20;74.84;101105.56;4933961;29;20238;-82
2022/05/16 07:46:35;;;;;;;0.30;0.20;;;;;;;15.19;74.70;101097.75;4934609;29;20483;-81
2022/05/16 07:49:03;;;;;;;0.25;0.25;;;;;;;15.20;74.68;101105.56;4934277;29;20108;-82
2022/05/16 07:51:33;;;;;;;0.20;0.15;;;;;;;15.18;75.04;101101.19;4934749;29;20044;-82
2022/05/16 07:54:02;;;;;;;0.10;0.10;;;;;;;15.17;75.03;101108.16;4934198;29;20047;-81
2022/05/16 07:56:30;;;;;;;0.10;0.10;;;;;;;15.14;74.54;101113.31;4935644;29;20135;-81
2022/05/16 07:58:58;;;;;;;1.45;0.20;;;;;;;15.11;75.75;101110.63;4934302;29;20043;-85
2022/05/16 08:01:27;;;;;;;0.47;0.10;;;;;;;15.09;75.20;101109.72;4934407;29;20119;-82
2022/05/16 08:03:55;;;;;;;2.35;0.10;;;;;;;15.05;75.64;101110.56;4934215;29;20059;-84
2022/05/16 08:06:27;;;;;;;0.63;0.10;;;;;;;15.05;75.68;101113.16;4934342;29;20043;-82
2022/05/16 08:11:42;;;;;;;0.10;0.10;;;;;;;15.05;75.89;101108.81;4934151;29;20067;-83
2022/05/16 08:14:11;;;;;;;1.17;0.20;;;;;;;14.97;75.23;101105.19;4942778;29;20051;-84
2022/05/16 08:16:39;;;;;;;0.28;0.13;;;;;;;14.95;75.67;101101.69;4952868;29;20051;-82
2022/05/16 08:19:08;;;;;;;1.10;0.20;;;;;;;14.91;76.06;101112.03;4952748;29;20103;-83
2022/05/16 08:21:38;;;;;;;1.75;0.25;;;;;;;14.88;76.03;101112.84;4953020;29;20055;-83
2022/05/16 08:24:09;;;;;;;0.17;0.10;;;;;;;14.84;76.36;101111.94;4952770;29;20055;-84
2022/05/16 08:26:38;;;;;;;0.38;0.10;;;;;;;14.82;76.22;101108.44;4952756;29;20071;-83
2022/05/16 08:29:06;;;;;;;0.10;0.10;;;;;;;14.83;76.02;101114.50;4952327;29;20123;-82
2022/05/16 08:31:35;;;;;;;0.30;0.17;;;;;;;14.81;75.69;101119.69;4914351;29;20503;-81
2022/05/16 08:34:04;;;;;;;0.10;0.10;;;;;;;14.81;76.42;101111.88;4928198;29;20118;-82
2022/05/16 08:42:14;;;;;;;1.95;0.30;;;;;;;14.77;76.34;101104.84;4933941;28;20066;-82
2022/05/16 08:44:55;;;;;;;0.00;0.00;;;;;;;14.77;76.46;101103.97;4933180;29;20118;-85
2022/05/16 08:47:36;;;;;;;0.10;0.10;;;;;;;14.76;75.90;101113.53;4933749;29;20146;-81
2022/05/16 08:50:10;;;;;;;0.30;0.10;;;;;;;14.73;75.98;101113.47;4934622;29;20143;-86
2022/05/16 08:52:44;;;;;;;0.40;0.20;;;;;;;14.69;76.62;101114.25;4935061;29;20102;-81
2022/05/16 08:55:24;;;;;;;0.63;0.20;;;;;;;14.63;76.24;101115.00;4933076;29;20050;-84
2022/05/16 08:57:57;;;;;;;0.30;0.10;;;;;;;14.61;76.46;101114.13;4933093;29;20108;-82
2022/05/16 09:00:33;;;;;;;0.63;0.10;;;;;;;14.58;76.76;101118.38;4933331;29;20052;-85
2022/05/16 09:03:04;;;;;;;0.45;0.25;;;;;;;14.57;76.70;101114.03;4933025;29;20052;-82
2022/05/16 09:05:38;;;;;;;0.20;0.20;;;;;;;14.57;77.28;101121.84;4933394;29;20056;-82
2022/05/16 09:08:13;;;;;;;0.10;0.10;;;;;;;14.55;77.18;101127.03;4925382;29;20502;-80
2022/05/16 09:11:00;;;;;;;1.85;0.10;;;;;;;14.55;77.75;101118.34;4932660;29;20055;-80
2022/05/16 09:13:40;;;;;;;0.50;0.20;;;;;;;14.53;78.11;101125.22;4936601;29;20057;-79
2022/05/16 09:16:14;;;;;;;1.23;0.17;;;;;;;14.52;78.85;101123.44;4951961;29;20054;-82
2022/05/16 09:18:50;;;;;;;0.65;0.30;;;;;;;14.52;78.61;101133.84;4913210;29;20108;-83
2022/05/16 09:21:27;;;;;;;0.40;0.13;;;;;;;14.49;78.88;101129.47;4913286;29;20108;-81
2022/05/16 09:24:04;;;;;;;0.80;0.30;;;;;;;14.50;79.35;101127.72;4913520;29;20048;-81
2022/05/16 09:26:49;;;;;;;0.10;0.10;;;;;;;14.50;79.35;101135.53;4926275;29;20047;-81
2022/05/16 09:29:25;;;;;;;1.10;0.08;;;;;;;14.46;79.60;101132.91;4932386;29;20055;-80
2022/05/16 09:31:56;;;;;;;0.43;0.05;;;;;;;14.48;79.71;101137.25;4932146;29;20549;-82
2022/05/16 09:34:26;;;;;;;0.80;0.28;;;;;;;14.45;79.23;101141.56;4941644;29;20090;-81
2022/05/16 09:36:54;;;;;;;0.30;0.10;;;;;;;14.44;78.95;101137.19;4950802;29;20576;-81
2022/05/16 09:39:24;;;;;;;0.90;0.28;;;;;;;14.45;78.58;101138.06;4936801;29;20059;-81
2022/05/16 09:42:03;;;;;;;0.43;0.10;;;;;;;14.44;78.55;101152.81;4951403;28;20138;-81
2022/05/16 09:44:35;;;;;;;0.30;0.00;;;;;;;14.43;78.44;101150.16;4951313;28;20220;-83
2022/05/16 09:47:23;;;;;;;0.15;0.00;;;;;;;14.41;78.64;101142.34;4954209;29;20051;-83
2022/05/16 09:50:21;;;;;;;0.47;0.10;;;;;;;14.41;78.19;101144.94;4914171;29;20127;-81
2022/05/16 09:52:52;;;;;;;0.30;0.10;;;;;;;14.40;78.70;101140.56;4913139;29;20056;-81
2022/05/16 09:55:33;;;;;;;0.38;0.05;;;;;;;14.39;78.50;101148.38;4913403;29;20095;-84
2022/05/16 09:58:05;;;;;;;0.25;0.00;;;;;;;14.37;78.27;101156.16;4929951;29;20083;-83
2022/05/16 10:00:39;;;;;;;0.15;0.05;;;;;;;14.36;77.57;101144.00;4932748;29;20103;-81
2022/05/16 10:03:29;;;;;;;0.98;0.05;;;;;;;14.33;77.10;101146.50;4931781;29;20089;-82
2022/05/16 10:05:58;;;;;;;0.20;0.10;;;;;;;14.30;76.86;101143.84;4932583;29;20463;-85
2022/05/16 10:08:30;;;;;;;0.10;0.05;;;;;;;14.26;76.30;101147.22;4932693;29;20048;-82
2022/05/16 10:11:01;;;;;;;0.65;0.00;;;;;;;14.25;76.39;101150.69;4932132;29;20063;-84
2022/05/16 10:13:32;;;;;;;0.00;0.00;;;;;;;14.23;76.48;101144.56;4931942;29;20109;-81
2022/05/16 10:16:03;;;;;;;0.00;0.00;;;;;;;14.17;76.51;101132.28;4943671;29;20047;-82
2022/05/16 10:18:36;;;;;;;0.10;0.10;;;;;;;14.21;76.28;101148.88;4951333;29;20110;-83
2022/05/16 10:21:11;;;;;;;0.10;0.10;;;;;;;14.21;76.51;101143.66;4950734;29;20141;-82
2022/05/16 10:23:43;;;;;;;0.00;0.00;;;;;;;14.21;77.24;101144.53;4950827;29;20560;-82
2022/05/16 10:26:17;;;;;;;0.00;0.00;;;;;;;14.18;77.34;101154.03;4951031;29;20128;-82
2022/05/16 10:28:51;;;;;;;0.10;0.10;;;;;;;14.19;77.34;101159.25;4950689;29;20177;-80
2022/05/16 10:34:14;;;;;;;0.13;0.10;;;;;;;14.18;77.88;101159.22;4950468;29;20062;-85
2022/05/16 10:36:44;;;;;;;0.10;0.10;;;;;;;14.21;77.47;101169.69;4950563;29;20078;-82
2022/05/16 10:39:17;;;;;;;0.00;0.00;;;;;;;14.22;78.11;101161.94;4950125;29;20134;-82
2022/05/16 10:41:51;;;;;;;0.57;0.00;;;;;;;14.24;78.06;101169.75;4952364;28;20110;-84
2022/05/16 10:44:29;;;;;;;0.20;0.13;;;;;;;14.21;78.04;101170.56;4952671;29;20055;-86
2022/05/16 10:47:06;;;;;;;0.40;0.10;;;;;;;14.17;78.92;101173.94;4951463;29;20059;-83
2022/05/16 10:49:39;;;;;;;0.05;0.03;;;;;;;14.17;79.00;101178.28;4929242;29;20087;-84
2022/05/16 10:52:24;;;;;;;0.47;0.25;;;;;;;14.15;79.39;101177.34;4932079;29;20051;-83
2022/05/16 10:54:52;;;;;;;0.35;0.20;;;;;;;14.13;79.56;101176.44;4931271;29;20062;-81
2022/05/16 10:57:38;;;;;;;0.10;0.05;;;;;;;14.14;79.16;101173.00;4930981;29;20138;-84
2022/05/16 11:00:11;;;;;;;0.20;0.00;;;;;;;14.12;79.63;101175.56;4931147;29;20058;-83
2022/05/16 11:03:05;;;;;;;2.63;0.10;;;;;;;14.06;79.76;101185.84;4931587;29;20051;-85
2022/05/16 11:05:44;;;;;;;0.30;0.03;;;;;;;14.07;80.58;101181.53;4931748;29;20048;-84
2022/05/16 11:08:25;;;;;;;0.00;0.00;;;;;;;14.08;80.68;101178.06;4931569;29;20048;-83
2022/05/16 11:11:00;;;;;;;0.55;0.10;;;;;;;14.09;80.56;101185.91;4931447;29;20116;-81
2022/05/16 11:13:38;;;;;;;0.70;0.13;;;;;;;14.08;80.86;101188.47;4934790;29;20079;-80
2022/05/16 11:16:14;;;;;;;0.20;0.10;;;;;;;14.07;80.56;101186.75;4949745;29;20134;-81
2022/05/16 11:18:51;;;;;;;0.13;0.10;;;;;;;14.08;81.12;101189.34;4949657;29;20505;-80
2022/05/16 11:21:32;;;;;;;0.10;0.00;;;;;;;14.11;80.89;101188.53;4950025;29;20059;-81
2022/05/16 11:24:09;;;;;;;0.20;0.10;;;;;;;14.13;80.60;101187.75;4949416;29;20055;-81
2022/05/16 11:26:44;;;;;;;0.13;0.05;;;;;;;14.14;81.30;101193.81;4949749;29;20102;-79
2022/05/16 11:29:21;;;;;;;0.10;0.10;;;;;;;14.14;80.97;101196.44;4949873;29;20296;-81
2022/05/16 11:32:04;;;;;;;0.28;0.00;;;;;;;14.11;81.53;101194.66;4949959;29;20079;-80
2022/05/16 11:34:49;;;;;;;1.67;0.20;;;;;;;14.08;81.36;101185.88;4949480;29;20055;-82
2022/05/16 11:37:28;;;;;;;0.10;0.10;;;;;;;14.02;80.48;101186.63;4951685;29;20051;-82
2022/05/16 11:40:04;;;;;;;0.30;0.17;;;;;;;13.96;80.24;101192.56;4951512;29;20116;-82
2022/05/16 11:42:42;;;;;;;0.10;0.00;;;;;;;13.94;80.94;101199.44;4950088;28;20055;-83
2022/05/16 11:45:29;;;;;;;0.00;0.00;;;;;;;13.88;80.75;101191.53;4949917;29;20141;-84
2022/05/16 11:48:10;;;;;;;0.00;0.00;;;;;;;13.87;80.66;101197.56;4943544;29;20079;-83
2022/05/16 11:50:45;;;;;;;0.00;0.00;;;;;;;13.84;80.24;101194.91;4931232;29;20556;-81
2022/05/16 11:53:44;;;;;;;0.00;0.00;;;;;;;13.78;80.51;101194.75;4930772;29;20131;-84
2022/05/16 12:02:21;;;;;;;0.00;0.00;;;;;;;13.77;80.84;101219.88;4930823;29;20103;-83
2022/05/16 12:04:53;;;;;;;0.10;0.05;;;;;;;13.78;81.02;101219.03;4930838;29;20061;-81
2022/05/16 12:07:23;;;;;;;;;;;;;;;13.78;80.07;101225.94;4932799;29;20118;-82
2022/05/16 12:09:57;;;;;;;1.75;0.98;;;;;;;13.75;80.40;101231.97;4934500;29;20288;-83
2022/05/16 12:12:36;;;;;;;0.10;0.10;;;;;;;13.68;80.63;101237.00;4934520;29;20075;-92
2022/05/16 12:15:29;;;;;;;0.00;0.00;;;;;;;13.60;80.66;101227.25;4950536;29;20114;-83
2022/05/16 12:18:01;;;;;;;0.13;0.00;;;;;;;13.59;81.87;101232.44;4951369;29;20083;-86
2022/05/16 12:21:04;;;;;;;0.00;0.00;;;;;;;13.56;82.09;101234.94;4952923;29;20566;-81
2022/05/16 12:24:01;;;;;;;0.10;0.10;;;;;;;13.56;81.84;101235.84;4952488;29;20051;-81
2022/05/16 12:26:57;;;;;;;0.25;0.10;;;;;;;13.56;82.22;101241.03;4947292;29;20055;-81